Private Wetterstation Sandau
Wetterdaten: Freitag, 30.11.2012
Datum Zeit Temp. A. Feuchte A. Luftdruck Regen Wind Richtung Richtung Taupunkt Windchill
30.11.2012 00:01 2,4 C 88 % 1001,2 hPa 0,0 l/m 7,2 km/h (2 Bft) W-SW 247 0,6 C 0,3 C
30.11.2012 00:06 2,4 C 88 % 1001,2 hPa 0,0 l/m 12,6 km/h (3 Bft) N-NW 337 0,6 C -1,0 C
30.11.2012 00:11 2,4 C 88 % 1001,1 hPa 0,0 l/m 7,9 km/h (2 Bft) NW 315 0,6 C 0,1 C
30.11.2012 00:16 2,4 C 88 % 1001,2 hPa 0,0 l/m 7,6 km/h (2 Bft) NW 315 0,6 C 0,2 C
30.11.2012 00:21 2,4 C 88 % 1001,2 hPa 0,0 l/m 2,9 km/h (1 Bft) NW 315 0,6 C 2,4 C
30.11.2012 00:26 2,5 C 88 % 1001,3 hPa 0,0 l/m 6,1 km/h (2 Bft) N-NO 22 0,7 C 0,8 C
30.11.2012 00:31 2,5 C 88 % 1001,4 hPa 0,0 l/m 10,4 km/h (2 Bft) N-NW 337 0,7 C -0,4 C
30.11.2012 00:36 2,5 C 88 % 1001,4 hPa 0,0 l/m 13,3 km/h (3 Bft) N 360 0,7 C -1,0 C
30.11.2012 00:41 2,5 C 88 % 1001,4 hPa 0,0 l/m 9,0 km/h (2 Bft) NW 315 0,7 C -0,1 C
30.11.2012 00:46 2,5 C 88 % 1001,4 hPa 0,0 l/m 3,2 km/h (1 Bft) N-NW 337 0,7 C 2,5 C
30.11.2012 00:51 2,5 C 88 % 1001,5 hPa 0,0 l/m 4,3 km/h (1 Bft) NW 315 0,7 C 2,5 C
30.11.2012 00:56 2,5 C 88 % 1001,4 hPa 0,0 l/m 13,7 km/h (3 Bft) N 360 0,7 C -1,1 C
30.11.2012 01:01 2,5 C 88 % 1001,5 hPa 0,0 l/m 7,2 km/h (2 Bft) NW 315 0,7 C 0,4 C
30.11.2012 01:06 2,5 C 88 % 1001,6 hPa 0,0 l/m 8,3 km/h (2 Bft) N-NW 337 0,7 C 0,1 C
30.11.2012 01:11 2,5 C 89 % 1001,5 hPa 0,0 l/m 14,8 km/h (3 Bft) W-NW 292 0,9 C -1,3 C
30.11.2012 01:16 2,5 C 89 % 1001,5 hPa 0,0 l/m 3,6 km/h (1 Bft) W-NW 292 0,9 C 2,5 C
30.11.2012 01:21 2,5 C 89 % 1001,6 hPa 0,0 l/m 9,4 km/h (2 Bft) NW 315 0,9 C -0,2 C
30.11.2012 01:26 2,5 C 89 % 1001,7 hPa 0,0 l/m 10,8 km/h (2 Bft) NW 315 0,9 C -0,5 C
30.11.2012 01:31 2,5 C 89 % 1001,7 hPa 0,0 l/m 14,4 km/h (3 Bft) N-NW 337 0,9 C -1,2 C
30.11.2012 01:36 2,5 C 89 % 1001,7 hPa 0,0 l/m 5,0 km/h (1 Bft) NW 315 0,9 C 1,2 C
30.11.2012 01:41 2,5 C 89 % 1001,8 hPa 0,0 l/m 6,1 km/h (2 Bft) N-NW 337 0,9 C 0,8 C
30.11.2012 01:46 2,5 C 89 % 1001,9 hPa 0,0 l/m 9,7 km/h (2 Bft) N-NW 337 0,9 C -0,3 C
30.11.2012 01:51 2,5 C 89 % 1001,9 hPa 0,0 l/m 9,7 km/h (2 Bft) NW 315 0,9 C -0,3 C
30.11.2012 01:56 2,6 C 89 % 1001,7 hPa 0,0 l/m 11,5 km/h (2 Bft) N-NW 337 1,0 C -0,5 C
30.11.2012 02:01 2,6 C 89 % 1001,8 hPa 0,0 l/m 10,4 km/h (2 Bft) W-NW 292 1,0 C -0,3 C
30.11.2012 02:06 2,6 C 89 % 1002,0 hPa 0,0 l/m 4,7 km/h (1 Bft) N 360 1,0 C 1,5 C
30.11.2012 02:11 2,6 C 89 % 1001,9 hPa 0,0 l/m 5,8 km/h (2 Bft) N-NO 22 1,0 C 1,0 C
30.11.2012 02:16 2,6 C 89 % 1001,9 hPa 0,0 l/m 19,1 km/h (3 Bft) NW 315 1,0 C -1,8 C
30.11.2012 02:21 2,6 C 89 % 1002,0 hPa 0,0 l/m 5,4 km/h (1 Bft) N-NW 337 1,0 C 1,2 C
30.11.2012 02:26 2,6 C 89 % 1002,1 hPa 0,0 l/m 4,0 km/h (1 Bft) W-NW 292 1,0 C 2,6 C
30.11.2012 02:31 2,5 C 89 % 1002,1 hPa 0,0 l/m 13,7 km/h (3 Bft) NW 315 0,9 C -1,1 C
30.11.2012 02:36 2,5 C 89 % 1002,2 hPa 0,0 l/m 7,9 km/h (2 Bft) NW 315 0,9 C 0,2 C
30.11.2012 02:41 2,5 C 89 % 1002,0 hPa 0,0 l/m 4,0 km/h (1 Bft) NW 315 0,9 C 2,5 C
30.11.2012 02:46 2,5 C 89 % 1002,0 hPa 0,0 l/m 14,0 km/h (3 Bft) NW 315 0,9 C -1,2 C
30.11.2012 02:51 2,5 C 89 % 1002,0 hPa 0,0 l/m 0,0 km/h (0 Bft) W-NW 292 0,9 C 2,5 C
30.11.2012 02:56 2,5 C 89 % 1002,1 hPa 0,0 l/m 10,4 km/h (2 Bft) N-NW 337 0,9 C -0,4 C
30.11.2012 03:01 2,5 C 89 % 1002,1 hPa 0,0 l/m 7,2 km/h (2 Bft) NW 315 0,9 C 0,4 C
30.11.2012 03:06 2,5 C 89 % 1002,2 hPa 0,0 l/m 6,1 km/h (2 Bft) N-NW 337 0,9 C 0,8 C
30.11.2012 03:11 2,5 C 89 % 1002,2 hPa 0,0 l/m 7,6 km/h (2 Bft) N 360 0,9 C 0,3 C
30.11.2012 03:16 2,5 C 89 % 1002,2 hPa 0,0 l/m 10,8 km/h (2 Bft) W-NW 292 0,9 C -0,5 C
30.11.2012 03:21 2,5 C 90 % 1002,2 hPa 0,0 l/m 6,5 km/h (2 Bft) NW 315 1,0 C 0,7 C
30.11.2012 03:26 2,5 C 90 % 1002,2 hPa 0,0 l/m 5,8 km/h (2 Bft) N 360 1,0 C 0,9 C
30.11.2012 03:31 2,5 C 90 % 1002,3 hPa 0,0 l/m 10,4 km/h (2 Bft) W-NW 292 1,0 C -0,4 C
30.11.2012 03:36 2,5 C 89 % 1002,2 hPa 0,0 l/m 11,5 km/h (2 Bft) N-NW 337 0,9 C -0,7 C
30.11.2012 03:41 2,5 C 89 % 1002,2 hPa 0,0 l/m 11,2 km/h (2 Bft) N 360 0,9 C -0,6 C
30.11.2012 03:46 2,5 C 90 % 1002,2 hPa 0,0 l/m 4,7 km/h (1 Bft) W 270 1,0 C 1,4 C
30.11.2012 03:51 2,5 C 90 % 1002,4 hPa 0,0 l/m 6,1 km/h (2 Bft) W-NW 292 1,0 C 0,8 C
30.11.2012 03:56 2,5 C 90 % 1002,4 hPa 0,0 l/m 4,0 km/h (1 Bft) W-NW 292 1,0 C 2,5 C
30.11.2012 04:01 2,5 C 90 % 1002,4 hPa 0,0 l/m 4,7 km/h (1 Bft) W-NW 292 1,0 C 1,4 C
30.11.2012 04:06 2,5 C 90 % 1002,4 hPa 0,0 l/m 2,9 km/h (1 Bft) NO 45 1,0 C 2,5 C
30.11.2012 04:11 2,5 C 90 % 1002,3 hPa 0,0 l/m 3,2 km/h (1 Bft) W-NW 292 1,0 C 2,5 C
30.11.2012 04:16 2,5 C 90 % 1002,5 hPa 0,0 l/m 5,4 km/h (1 Bft) NW 315 1,0 C 1,1 C
30.11.2012 04:21 2,5 C 90 % 1002,5 hPa 0,0 l/m 5,4 km/h (1 Bft) W-NW 292 1,0 C 1,1 C
30.11.2012 04:26 2,5 C 90 % 1002,6 hPa 0,0 l/m 8,3 km/h (2 Bft) NW 315 1,0 C 0,1 C
30.11.2012 04:31 2,5 C 90 % 1002,6 hPa 0,0 l/m 11,2 km/h (2 Bft) NW 315 1,0 C -0,6 C
30.11.2012 04:36 2,4 C 90 % 1002,6 hPa 0,0 l/m 6,1 km/h (2 Bft) NW 315 0,9 C 0,7 C
30.11.2012 04:41 2,5 C 90 % 1002,6 hPa 0,0 l/m 8,3 km/h (2 Bft) N-NW 337 1,0 C 0,1 C
30.11.2012 04:46 2,4 C 90 % 1002,7 hPa 0,0 l/m 8,6 km/h (2 Bft) NW 315 0,9 C -0,1 C
30.11.2012 04:51 2,5 C 90 % 1002,8 hPa 0,0 l/m 6,8 km/h (2 Bft) N-NW 337 1,0 C 0,6 C
30.11.2012 04:56 2,5 C 90 % 1002,6 hPa 0,0 l/m 4,0 km/h (1 Bft) N-NW 337 1,0 C 2,5 C
30.11.2012 05:01 2,5 C 90 % 1002,6 hPa 0,0 l/m 2,2 km/h (1 Bft) N-NW 337 1,0 C 2,5 C
30.11.2012 05:06 2,5 C 90 % 1002,6 hPa 0,0 l/m 11,9 km/h (2 Bft) W 270 1,0 C -0,8 C
30.11.2012 05:11 2,4 C 90 % 1002,7 hPa 0,0 l/m 2,9 km/h (1 Bft) NW 315 0,9 C 2,4 C
30.11.2012 05:16 2,5 C 90 % 1002,7 hPa 0,0 l/m 2,5 km/h (1 Bft) N-NW 337 1,0 C 2,5 C
30.11.2012 05:21 2,5 C 90 % 1002,9 hPa 0,0 l/m 5,0 km/h (1 Bft) NW 315 1,0 C 1,2 C
30.11.2012 05:26 2,4 C 90 % 1002,8 hPa 0,0 l/m 6,1 km/h (2 Bft) W-NW 292 0,9 C 0,7 C
30.11.2012 05:31 2,4 C 90 % 1003,0 hPa 0,0 l/m 6,8 km/h (2 Bft) W-NW 292 0,9 C 0,5 C
30.11.2012 05:36 2,4 C 90 % 1003,2 hPa 0,0 l/m 13,7 km/h (3 Bft) NW 315 0,9 C -1,2 C
30.11.2012 05:41 2,4 C 90 % 1003,2 hPa 0,0 l/m 6,8 km/h (2 Bft) NW 315 0,9 C 0,5 C
30.11.2012 05:46 2,4 C 90 % 1003,1 hPa 0,0 l/m 4,0 km/h (1 Bft) N-NW 337 0,9 C 2,4 C
30.11.2012 05:51 2,4 C 90 % 1003,2 hPa 0,0 l/m 4,0 km/h (1 Bft) N 360 0,9 C 2,4 C
30.11.2012 05:56 2,4 C 90 % 1003,1 hPa 0,0 l/m 8,6 km/h (2 Bft) N 360 0,9 C -0,1 C
30.11.2012 06:01 2,3 C 90 % 1003,2 hPa 0,0 l/m 4,0 km/h (1 Bft) W-NW 292 0,8 C 2,3 C
30.11.2012 06:06 2,3 C 90 % 1003,3 hPa 0,0 l/m 7,2 km/h (2 Bft) NW 315 0,8 C 0,2 C
30.11.2012 06:11 2,3 C 90 % 1003,5 hPa 0,0 l/m 5,0 km/h (1 Bft) NW 315 0,8 C 1,0 C
30.11.2012 06:16 2,2 C 90 % 1003,5 hPa 0,5 l/m 7,6 km/h (2 Bft) NW 315 0,7 C -0,0 C
30.11.2012 06:21 2,2 C 90 % 1003,5 hPa 0,0 l/m 6,1 km/h (2 Bft) N-NW 337 0,7 C 0,5 C
30.11.2012 06:26 2,2 C 90 % 1003,4 hPa 0,0 l/m 10,1 km/h (2 Bft) W-NW 292 0,7 C -0,7 C
30.11.2012 06:31 2,2 C 90 % 1003,5 hPa 0,0 l/m 5,0 km/h (1 Bft) W 270 0,7 C 0,9 C
30.11.2012 06:36 2,2 C 90 % 1003,4 hPa 0,0 l/m 5,0 km/h (1 Bft) NW 315 0,7 C 0,9 C
30.11.2012 06:41 2,2 C 91 % 1003,5 hPa 0,0 l/m 3,6 km/h (1 Bft) NW 315 0,9 C 2,2 C
30.11.2012 06:46 2,2 C 91 % 1003,6 hPa 0,0 l/m 8,3 km/h (2 Bft) NW 315 0,9 C -0,2 C
30.11.2012 06:51 2,2 C 91 % 1003,6 hPa 0,0 l/m 3,6 km/h (1 Bft) W 270 0,9 C 2,2 C
30.11.2012 06:56 2,1 C 91 % 1003,7 hPa 0,0 l/m 8,6 km/h (2 Bft) N-NW 337 0,8 C -0,4 C
30.11.2012 07:01 2,1 C 91 % 1003,8 hPa 0,0 l/m 4,3 km/h (1 Bft) W-NW 292 0,8 C 2,1 C
30.11.2012 07:06 2,1 C 91 % 1003,8 hPa 0,0 l/m 3,2 km/h (1 Bft) N-NW 337 0,8 C 2,1 C
30.11.2012 07:11 2,1 C 91 % 1003,9 hPa 0,0 l/m 11,9 km/h (2 Bft) NW 315 0,8 C -1,2 C
30.11.2012 07:16 2,2 C 91 % 1003,7 hPa 0,0 l/m 7,9 km/h (2 Bft) W-NW 292 0,9 C -0,1 C
30.11.2012 07:21 2,2 C 91 % 1003,9 hPa 0,0 l/m 6,5 km/h (2 Bft) NW 315 0,9 C 0,3 C
30.11.2012 07:26 2,2 C 91 % 1004,0 hPa 0,0 l/m 6,8 km/h (2 Bft) NW 315 0,9 C 0,2 C
30.11.2012 07:31 2,2 C 91 % 1004,1 hPa 0,0 l/m 7,6 km/h (2 Bft) NW 315 0,9 C -0,0 C
30.11.2012 07:36 2,2 C 91 % 1004,0 hPa 0,0 l/m 10,1 km/h (2 Bft) NW 315 0,9 C -0,7 C
30.11.2012 07:41 2,3 C 91 % 1004,0 hPa 0,0 l/m 4,7 km/h (1 Bft) W 270 1,0 C 1,2 C
30.11.2012 07:46 2,3 C 91 % 1004,1 hPa 0,0 l/m 2,5 km/h (1 Bft) W-NW 292 1,0 C 2,3 C
30.11.2012 07:51 2,3 C 91 % 1004,2 hPa 0,0 l/m 5,4 km/h (1 Bft) N-NO 22 1,0 C 0,9 C
30.11.2012 07:56 2,2 C 91 % 1004,3 hPa 0,0 l/m 3,6 km/h (1 Bft) N-NO 22 0,9 C 2,2 C
30.11.2012 08:01 2,1 C 91 % 1004,3 hPa 0,0 l/m 5,0 km/h (1 Bft) NW 315 0,8 C 0,8 C
30.11.2012 08:06 2,1 C 91 % 1004,4 hPa 0,0 l/m 2,9 km/h (1 Bft) W-NW 292 0,8 C 2,1 C
30.11.2012 08:11 2,1 C 92 % 1004,3 hPa 0,0 l/m 3,6 km/h (1 Bft) NW 315 0,9 C 2,1 C
30.11.2012 08:16 2,2 C 92 % 1004,5 hPa 0,0 l/m 3,2 km/h (1 Bft) W 270 1,0 C 2,2 C
30.11.2012 08:21 2,2 C 92 % 1004,4 hPa 0,0 l/m 1,8 km/h (1 Bft) N 360 1,0 C 2,2 C
30.11.2012 08:26 2,3 C 92 % 1004,4 hPa 0,0 l/m 10,8 km/h (2 Bft) N-NW 337 1,1 C -0,8 C
30.11.2012 08:31 2,3 C 92 % 1004,6 hPa 0,0 l/m 9,7 km/h (2 Bft) N-NW 337 1,1 C -0,5 C
30.11.2012 08:36 2,3 C 92 % 1004,5 hPa 0,0 l/m 16,6 km/h (3 Bft) NW 315 1,1 C -1,8 C
30.11.2012 08:41 2,3 C 92 % 1004,7 hPa 0,0 l/m 8,3 km/h (2 Bft) N-NW 337 1,1 C -0,1 C
30.11.2012 08:46 2,3 C 92 % 1004,5 hPa 0,0 l/m 6,5 km/h (2 Bft) N 360 1,1 C 0,4 C
30.11.2012 08:51 2,4 C 92 % 1004,8 hPa 0,0 l/m 2,2 km/h (1 Bft) NW 315 1,2 C 2,4 C
30.11.2012 08:56 2,4 C 92 % 1004,9 hPa 0,0 l/m 3,2 km/h (1 Bft) NW 315 1,2 C 2,4 C
30.11.2012 09:01 2,4 C 92 % 1004,9 hPa 0,0 l/m 5,4 km/h (1 Bft) NW 315 1,2 C 1,0 C
30.11.2012 09:06 2,4 C 92 % 1005,0 hPa 0,0 l/m 4,7 km/h (1 Bft) NW 315 1,2 C 1,3 C
30.11.2012 09:11 2,4 C 92 % 1005,2 hPa 0,0 l/m 2,5 km/h (1 Bft) W 270 1,2 C 2,4 C
30.11.2012 09:16 2,5 C 92 % 1005,2 hPa 0,0 l/m 5,4 km/h (1 Bft) NW 315 1,3 C 1,1 C
30.11.2012 09:21 2,5 C 92 % 1005,1 hPa 0,0 l/m 2,2 km/h (1 Bft) W-NW 292 1,3 C 2,5 C
30.11.2012 09:26 2,4 C 92 % 1005,2 hPa 0,0 l/m 6,8 km/h (2 Bft) N 360 1,2 C 0,5 C
30.11.2012 09:31 2,4 C 92 % 1005,3 hPa 0,0 l/m 14,8 km/h (3 Bft) N 360 1,2 C -1,4 C
30.11.2012 09:36 2,4 C 92 % 1005,3 hPa 0,0 l/m 5,0 km/h (1 Bft) NO 45 1,2 C 1,1 C
30.11.2012 09:41 2,4 C 91 % 1005,3 hPa 0,0 l/m 2,9 km/h (1 Bft) N-NO 22 1,1 C 2,4 C
30.11.2012 09:46 2,5 C 91 % 1005,5 hPa 0,0 l/m 5,0 km/h (1 Bft) N 360 1,2 C 1,2 C
30.11.2012 09:51 2,5 C 91 % 1005,6 hPa 0,0 l/m 7,6 km/h (2 Bft) N 360 1,2 C 0,3 C
30.11.2012 09:56 2,5 C 91 % 1005,5 hPa 0,0 l/m 4,7 km/h (1 Bft) NW 315 1,2 C 1,4 C
30.11.2012 10:01 2,6 C 91 % 1005,6 hPa 0,0 l/m 6,1 km/h (2 Bft) N-NW 337 1,3 C 0,9 C
30.11.2012 10:06 2,6 C 91 % 1005,9 hPa 0,0 l/m 7,2 km/h (2 Bft) NW 315 1,3 C 0,6 C
30.11.2012 10:11 2,6 C 91 % 1005,8 hPa 0,0 l/m 4,0 km/h (1 Bft) NW 315 1,3 C 2,6 C
30.11.2012 10:16 2,6 C 91 % 1005,8 hPa 0,0 l/m 6,1 km/h (2 Bft) N 360 1,3 C 0,9 C
30.11.2012 10:21 2,6 C 91 % 1005,9 hPa 0,0 l/m 5,8 km/h (2 Bft) NW 315 1,3 C 1,0 C
30.11.2012 10:26 2,7 C 91 % 1005,8 hPa 0,0 l/m 3,6 km/h (1 Bft) NW 315 1,4 C 2,7 C
30.11.2012 10:31 2,8 C 91 % 1006,0 hPa 0,0 l/m 4,0 km/h (1 Bft) NW 315 1,5 C 2,8 C
30.11.2012 10:36 2,8 C 91 % 1006,1 hPa 0,0 l/m 11,5 km/h (2 Bft) N-NW 337 1,5 C -0,3 C
30.11.2012 10:41 2,9 C 90 % 1006,1 hPa 0,0 l/m 2,9 km/h (1 Bft) N-NW 337 1,4 C 2,9 C
30.11.2012 10:46 2,9 C 90 % 1006,2 hPa 0,0 l/m 3,6 km/h (1 Bft) NW 315 1,4 C 2,9 C
30.11.2012 10:51 2,9 C 90 % 1006,2 hPa 0,0 l/m 2,2 km/h (1 Bft) N-NW 337 1,4 C 2,9 C
30.11.2012 10:56 3,0 C 90 % 1006,3 hPa 0,0 l/m 7,6 km/h (2 Bft) NW 315 1,5 C 0,9 C
30.11.2012 11:01 3,1 C 89 % 1006,3 hPa 0,0 l/m 10,4 km/h (2 Bft) W-NW 292 1,5 C 0,3 C
30.11.2012 11:06 3,2 C 89 % 1006,4 hPa 0,0 l/m 4,0 km/h (1 Bft) N-NW 337 1,6 C 3,2 C
30.11.2012 11:11 3,3 C 89 % 1006,5 hPa 0,0 l/m 2,9 km/h (1 Bft) N-NW 337 1,7 C 3,3 C
30.11.2012 11:16 3,2 C 88 % 1006,3 hPa 0,0 l/m 4,0 km/h (1 Bft) N-NO 22 1,4 C 3,2 C
30.11.2012 11:21 3,2 C 88 % 1006,4 hPa 0,0 l/m 3,6 km/h (1 Bft) N 360 1,4 C 3,2 C
30.11.2012 11:26 3,2 C 88 % 1006,6 hPa 0,0 l/m 10,8 km/h (2 Bft) W-NW 292 1,4 C 0,3 C
30.11.2012 11:31 3,3 C 88 % 1006,6 hPa 0,0 l/m 13,7 km/h (3 Bft) NW 315 1,5 C -0,1 C
30.11.2012 11:36 3,3 C 88 % 1006,6 hPa 0,0 l/m 15,8 km/h (3 Bft) N-NW 337 1,5 C -0,5 C
30.11.2012 11:41 3,4 C 87 % 1006,6 hPa 0,0 l/m 11,2 km/h (2 Bft) N-NW 337 1,4 C 0,5 C
30.11.2012 11:46 3,3 C 87 % 1006,5 hPa 0,0 l/m 6,1 km/h (2 Bft) N-NW 337 1,3 C 1,7 C
30.11.2012 11:51 3,4 C 87 % 1006,7 hPa 0,0 l/m 3,2 km/h (1 Bft) N-NO 22 1,4 C 3,4 C
30.11.2012 11:56 3,3 C 87 % 1006,8 hPa 0,0 l/m 5,8 km/h (2 Bft) NW 315 1,3 C 1,8 C
30.11.2012 12:01 3,3 C 87 % 1006,7 hPa 0,0 l/m 5,4 km/h (1 Bft) NW 315 1,3 C 2,0 C
30.11.2012 12:06 3,3 C 87 % 1006,6 hPa 0,0 l/m 7,9 km/h (2 Bft) W-NW 292 1,3 C 1,2 C
30.11.2012 12:11 3,3 C 87 % 1006,8 hPa 0,0 l/m 4,7 km/h (1 Bft) NW 315 1,3 C 2,3 C
30.11.2012 12:16 3,3 C 87 % 1006,8 hPa 0,0 l/m 7,2 km/h (2 Bft) W-NW 292 1,3 C 1,4 C
30.11.2012 12:21 3,3 C 87 % 1006,7 hPa 0,0 l/m 0,0 km/h (0 Bft) W-NW 292 1,3 C 3,3 C
30.11.2012 12:26 3,3 C 87 % 1006,7 hPa 0,0 l/m 8,6 km/h (2 Bft) W 270 1,3 C 1,0 C
30.11.2012 12:31 3,3 C 87 % 1006,9 hPa 0,0 l/m 4,0 km/h (1 Bft) NW 315 1,3 C 3,3 C
30.11.2012 12:36 3,2 C 87 % 1006,9 hPa 0,0 l/m 9,0 km/h (2 Bft) NW 315 1,2 C 0,8 C
30.11.2012 12:41 3,2 C 86 % 1006,9 hPa 0,0 l/m 9,4 km/h (2 Bft) NW 315 1,1 C 0,7 C
30.11.2012 12:46 3,1 C 86 % 1007,1 hPa 0,0 l/m 5,0 km/h (1 Bft) NW 315 1,0 C 1,9 C
30.11.2012 12:51 3,1 C 86 % 1007,1 hPa 0,0 l/m 4,0 km/h (1 Bft) NW 315 1,0 C 3,1 C
30.11.2012 12:56 3,1 C 86 % 1006,9 hPa 0,0 l/m 7,2 km/h (2 Bft) W-NW 292 1,0 C 1,1 C
30.11.2012 13:01 3,0 C 86 % 1006,9 hPa 0,0 l/m 9,7 km/h (2 Bft) W-NW 292 0,9 C 0,3 C
30.11.2012 13:06 2,9 C 85 % 1007,0 hPa 0,0 l/m 5,8 km/h (2 Bft) W 270 0,6 C 1,4 C
30.11.2012 13:11 2,9 C 85 % 1007,1 hPa 0,0 l/m 10,8 km/h (2 Bft) W 270 0,6 C -0,0 C
30.11.2012 13:16 2,9 C 85 % 1007,0 hPa 0,0 l/m 14,8 km/h (3 Bft) W-NW 292 0,6 C -0,8 C
30.11.2012 13:21 2,9 C 85 % 1007,1 hPa 0,0 l/m 7,6 km/h (2 Bft) W-NW 292 0,6 C 0,8 C
30.11.2012 13:26 2,9 C 86 % 1007,2 hPa 0,0 l/m 17,6 km/h (3 Bft) NW 315 0,8 C -1,2 C
30.11.2012 13:31 3,2 C 86 % 1007,3 hPa 0,0 l/m 11,2 km/h (2 Bft) NW 315 1,1 C 0,2 C
30.11.2012 13:36 3,4 C 86 % 1007,3 hPa 0,0 l/m 5,0 km/h (1 Bft) N-NW 337 1,3 C 2,3 C
30.11.2012 13:41 3,4 C 84 % 1007,4 hPa 0,0 l/m 11,2 km/h (2 Bft) N 360 1,0 C 0,5 C
30.11.2012 13:46 3,4 C 84 % 1007,4 hPa 0,0 l/m 7,2 km/h (2 Bft) NW 315 1,0 C 1,5 C
30.11.2012 13:51 3,5 C 84 % 1007,4 hPa 0,0 l/m 15,5 km/h (3 Bft) W-NW 292 1,1 C -0,2 C
30.11.2012 13:56 3,6 C 82 % 1007,4 hPa 0,0 l/m 8,3 km/h (2 Bft) W-NW 292 0,8 C 1,4 C
30.11.2012 14:01 3,4 C 82 % 1007,5 hPa 0,0 l/m 11,2 km/h (2 Bft) W 270 0,6 C 0,5 C
30.11.2012 14:06 3,2 C 82 % 1007,6 hPa 0,0 l/m 2,5 km/h (1 Bft) NW 315 0,4 C 3,2 C
30.11.2012 14:11 3,1 C 82 % 1007,6 hPa 0,0 l/m 5,4 km/h (1 Bft) W-NW 292 0,3 C 1,8 C
30.11.2012 14:16 2,9 C 82 % 1007,7 hPa 0,0 l/m 7,6 km/h (2 Bft) N 360 0,1 C 0,8 C
30.11.2012 14:21 2,8 C 82 % 1007,9 hPa 0,0 l/m 6,8 km/h (2 Bft) W-NW 292 0,0 C 0,9 C
30.11.2012 14:26 2,8 C 83 % 1007,7 hPa 0,0 l/m 4,3 km/h (1 Bft) NW 315 0,2 C 2,8 C
30.11.2012 14:31 2,8 C 83 % 1007,8 hPa 0,0 l/m 7,2 km/h (2 Bft) N-NW 337 0,2 C 0,8 C
30.11.2012 14:36 2,8 C 83 % 1007,8 hPa 0,0 l/m 9,7 km/h (2 Bft) NW 315 0,2 C 0,1 C
30.11.2012 14:41 2,8 C 84 % 1008,0 hPa 0,0 l/m 5,4 km/h (1 Bft) N-NO 22 0,4 C 1,4 C
30.11.2012 14:46 2,7 C 84 % 1008,0 hPa 0,0 l/m 7,9 km/h (2 Bft) W-NW 292 0,3 C 0,5 C
30.11.2012 14:51 2,4 C 83 % 1008,1 hPa 0,0 l/m 8,3 km/h (2 Bft) N-NO 22 -0,2 C -0,0 C
30.11.2012 14:56 2,2 C 82 % 1008,0 hPa 0,0 l/m 11,5 km/h (2 Bft) N-NW 337 -0,5 C -1,0 C
30.11.2012 15:01 2,1 C 82 % 1008,2 hPa 0,0 l/m 0,0 km/h (0 Bft) NO 45 -0,6 C 2,1 C
30.11.2012 15:06 2,1 C 83 % 1008,2 hPa 0,0 l/m 4,3 km/h (1 Bft) N 360 -0,5 C 2,1 C
30.11.2012 15:11 1,9 C 83 % 1008,2 hPa 0,0 l/m 7,9 km/h (2 Bft) N-NW 337 -0,7 C -0,5 C
30.11.2012 15:16 1,9 C 83 % 1008,3 hPa 0,0 l/m 3,6 km/h (1 Bft) NW 315 -0,7 C 1,9 C
30.11.2012 15:21 1,9 C 83 % 1008,5 hPa 0,0 l/m 5,0 km/h (1 Bft) N-NW 337 -0,7 C 0,6 C
30.11.2012 15:26 1,9 C 84 % 1008,5 hPa 0,0 l/m 4,7 km/h (1 Bft) NW 315 -0,5 C 0,7 C
30.11.2012 15:31 1,9 C 84 % 1008,4 hPa 0,0 l/m 5,4 km/h (1 Bft) NW 315 -0,5 C 0,4 C
30.11.2012 15:36 1,8 C 84 % 1008,5 hPa 0,0 l/m 2,5 km/h (1 Bft) W-NW 292 -0,6 C 1,8 C
30.11.2012 15:41 1,6 C 84 % 1008,6 hPa 0,0 l/m 4,3 km/h (1 Bft) NW 315 -0,8 C 1,6 C
30.11.2012 15:46 1,6 C 85 % 1008,5 hPa 0,0 l/m 2,2 km/h (1 Bft) W-NW 292 -0,6 C 1,6 C
30.11.2012 15:51 1,5 C 85 % 1008,6 hPa 0,0 l/m 2,2 km/h (1 Bft) W-NW 292 -0,7 C 1,5 C
30.11.2012 15:56 1,3 C 85 % 1008,8 hPa 0,0 l/m 7,6 km/h (2 Bft) W-NW 292 -0,9 C -1,1 C
30.11.2012 16:01 1,3 C 85 % 1008,7 hPa 0,0 l/m 4,7 km/h (1 Bft) NW 315 -0,9 C 0,0 C
30.11.2012 16:06 1,3 C 85 % 1008,7 hPa 0,0 l/m 1,1 km/h (1 Bft) NW 315 -0,9 C 1,3 C
30.11.2012 16:11 1,2 C 85 % 1008,8 hPa 0,0 l/m 1,1 km/h (1 Bft) W-NW 292 -1,0 C 1,2 C
30.11.2012 16:16 1,1 C 85 % 1009,0 hPa 0,0 l/m 2,9 km/h (1 Bft) W-NW 292 -1,1 C 1,1 C
30.11.2012 16:21 0,9 C 85 % 1008,9 hPa 0,0 l/m 4,0 km/h (1 Bft) W-NW 292 -1,3 C 0,9 C
30.11.2012 16:26 0,9 C 85 % 1008,9 hPa 0,0 l/m 1,4 km/h (1 Bft) NW 315 -1,3 C 0,9 C
30.11.2012 16:31 0,8 C 85 % 1008,9 hPa 0,0 l/m 2,9 km/h (1 Bft) W-NW 292 -1,4 C 0,8 C
30.11.2012 16:36 0,8 C 86 % 1008,8 hPa 0,0 l/m 0,0 km/h (0 Bft) W-NW 292 -1,3 C 0,8 C
30.11.2012 16:41 0,7 C 86 % 1008,9 hPa 0,0 l/m 0,0 km/h (0 Bft) W-NW 292 -1,4 C 0,7 C
30.11.2012 16:46 0,6 C 86 % 1009,1 hPa 0,0 l/m 4,0 km/h (1 Bft) W 270 -1,5 C 0,6 C
30.11.2012 16:51 0,5 C 86 % 1009,1 hPa 0,0 l/m 2,2 km/h (1 Bft) W 270 -1,6 C 0,5 C
30.11.2012 16:56 0,4 C 86 % 1009,0 hPa 0,0 l/m 4,0 km/h (1 Bft) W-SW 247 -1,7 C 0,4 C
30.11.2012 17:01 0,4 C 86 % 1009,1 hPa 0,0 l/m 2,5 km/h (1 Bft) W-SW 247 -1,7 C 0,4 C
30.11.2012 17:06 0,3 C 87 % 1009,1 hPa 0,0 l/m 3,6 km/h (1 Bft) W-SW 247 -1,6 C 0,3 C
30.11.2012 17:11 0,2 C 87 % 1009,3 hPa 0,0 l/m 1,8 km/h (1 Bft) W-SW 247 -1,7 C 0,2 C
30.11.2012 17:16 0,2 C 87 % 1009,2 hPa 0,0 l/m 0,0 km/h (0 Bft) W-SW 247 -1,7 C 0,2 C
30.11.2012 17:21 0,1 C 87 % 1009,1 hPa 0,0 l/m 2,9 km/h (1 Bft) SW 225 -1,8 C 0,1 C
30.11.2012 17:26 0,1 C 87 % 1009,2 hPa 0,0 l/m 3,2 km/h (1 Bft) SW 225 -1,8 C 0,1 C
30.11.2012 17:31 0,1 C 87 % 1009,4 hPa 0,0 l/m 2,2 km/h (1 Bft) W-SW 247 -1,8 C 0,1 C
30.11.2012 17:36 -0,1 C 87 % 1009,4 hPa 0,0 l/m 0,0 km/h (0 Bft) W-SW 247 -2,0 C -0,1 C
30.11.2012 17:41 -0,1 C 87 % 1009,5 hPa 0,0 l/m 8,3 km/h (2 Bft) W-SW 247 -2,0 C -2,9 C
30.11.2012 17:46 -0,1 C 88 % 1009,6 hPa 0,0 l/m 2,5 km/h (1 Bft) W-SW 247 -1,8 C -0,1 C
30.11.2012 17:51 -0,1 C 88 % 1009,5 hPa 0,0 l/m 9,7 km/h (2 Bft) W-SW 247 -1,8 C -3,4 C
30.11.2012 17:56 -0,1 C 88 % 1009,6 hPa 0,0 l/m 8,6 km/h (2 Bft) W-SW 247 -1,8 C -3,0 C
30.11.2012 18:01 -0,1 C 88 % 1009,7 hPa 0,0 l/m 3,6 km/h (1 Bft) W 270 -1,8 C -0,1 C
30.11.2012 18:06 -0,1 C 88 % 1009,6 hPa 0,0 l/m 8,3 km/h (2 Bft) W 270 -1,8 C -2,9 C
30.11.2012 18:11 -0,1 C 88 % 1009,7 hPa 0,0 l/m 6,1 km/h (2 Bft) W-SW 247 -1,8 C -2,2 C
30.11.2012 18:16 -0,1 C 88 % 1009,6 hPa 0,0 l/m 4,3 km/h (1 Bft) W-SW 247 -1,8 C -0,1 C
30.11.2012 18:21 -0,1 C 88 % 1009,6 hPa 0,0 l/m 5,0 km/h (1 Bft) W-SW 247 -1,8 C -1,7 C
30.11.2012 18:26 -0,2 C 88 % 1009,6 hPa 0,0 l/m 3,2 km/h (1 Bft) W-SW 247 -1,9 C -0,2 C
30.11.2012 18:31 -0,2 C 88 % 1009,5 hPa 0,0 l/m 11,5 km/h (2 Bft) W 270 -1,9 C -3,9 C
30.11.2012 18:36 -0,2 C 88 % 1009,7 hPa 0,0 l/m 4,3 km/h (1 Bft) W 270 -1,9 C -0,2 C
30.11.2012 18:41 -0,4 C 88 % 1009,7 hPa 0,0 l/m 6,1 km/h (2 Bft) W 270 -2,1 C -2,5 C
30.11.2012 18:46 -0,4 C 89 % 1009,7 hPa 0,0 l/m 3,6 km/h (1 Bft) W-SW 247 -2,0 C -0,4 C
30.11.2012 18:51 -0,4 C 89 % 1009,7 hPa 0,0 l/m 7,6 km/h (2 Bft) W-SW 247 -2,0 C -3,1 C
30.11.2012 18:56 -0,4 C 89 % 1009,8 hPa 0,0 l/m 2,9 km/h (1 Bft) W 270 -2,0 C -0,4 C
30.11.2012 19:01 -0,5 C 89 % 1009,9 hPa 0,0 l/m 3,2 km/h (1 Bft) W 270 -2,1 C -0,5 C
30.11.2012 19:06 -0,5 C 89 % 1010,0 hPa 0,0 l/m 2,9 km/h (1 Bft) W 270 -2,1 C -0,5 C
30.11.2012 19:11 -0,4 C 89 % 1010,1 hPa 0,0 l/m 6,5 km/h (2 Bft) W 270 -2,0 C -2,7 C
30.11.2012 19:16 -0,4 C 89 % 1010,1 hPa 0,0 l/m 7,9 km/h (2 Bft) SW 225 -2,0 C -3,2 C
30.11.2012 19:21 -0,4 C 89 % 1010,0 hPa 0,0 l/m 5,0 km/h (1 Bft) W-SW 247 -2,0 C -2,0 C
30.11.2012 19:26 -0,5 C 89 % 1010,1 hPa 0,0 l/m 3,6 km/h (1 Bft) W 270 -2,1 C -0,5 C
30.11.2012 19:31 -0,5 C 89 % 1010,0 hPa 0,0 l/m 2,2 km/h (1 Bft) W-NW 292 -2,1 C -0,5 C
30.11.2012 19:36 -0,5 C 89 % 1010,2 hPa 0,0 l/m 5,0 km/h (1 Bft) W-NW 292 -2,1 C -2,2 C
30.11.2012 19:41 -0,5 C 89 % 1010,2 hPa 0,0 l/m 5,8 km/h (2 Bft) W-NW 292 -2,1 C -2,5 C
30.11.2012 19:46 -0,6 C 88 % 1010,2 hPa 0,0 l/m 0,0 km/h (0 Bft) W 270 -2,3 C -0,6 C
30.11.2012 19:51 -0,6 C 88 % 1010,3 hPa 0,0 l/m 0,0 km/h (0 Bft) W 270 -2,3 C -0,6 C
30.11.2012 19:56 -0,6 C 88 % 1010,4 hPa 0,0 l/m 6,8 km/h (2 Bft) W 270 -2,3 C -3,0 C
30.11.2012 20:01 -0,7 C 88 % 1010,5 hPa 0,0 l/m 2,9 km/h (1 Bft) W 270 -2,4 C -0,7 C
30.11.2012 20:06 -0,7 C 88 % 1010,4 hPa 0,0 l/m 5,0 km/h (1 Bft) W 270 -2,4 C -2,4 C
30.11.2012 20:11 -0,7 C 88 % 1010,5 hPa 0,0 l/m 6,1 km/h (2 Bft) W-SW 247 -2,4 C -2,9 C
30.11.2012 20:16 -0,7 C 88 % 1010,5 hPa 0,0 l/m 2,9 km/h (1 Bft) W-SW 247 -2,4 C -0,7 C
30.11.2012 20:21 -0,8 C 88 % 1010,5 hPa 0,0 l/m 2,9 km/h (1 Bft) W-SW 247 -2,5 C -0,8 C
30.11.2012 20:26 -0,8 C 88 % 1010,5 hPa 0,0 l/m 5,4 km/h (1 Bft) W-SW 247 -2,5 C -2,7 C
30.11.2012 20:31 -0,9 C 88 % 1010,5 hPa 0,0 l/m 2,5 km/h (1 Bft) W-SW 247 -2,6 C -0,9 C
30.11.2012 20:36 -0,9 C 88 % 1010,6 hPa 0,0 l/m 5,8 km/h (2 Bft) W 270 -2,6 C -3,0 C
30.11.2012 20:41 -1,0 C 88 % 1010,6 hPa 0,0 l/m 1,8 km/h (1 Bft) W 270 -2,7 C -1,0 C
30.11.2012 20:46 -1,0 C 88 % 1010,7 hPa 0,0 l/m 5,0 km/h (1 Bft) W-SW 247 -2,7 C -2,7 C
30.11.2012 20:51 -1,1 C 88 % 1010,9 hPa 0,0 l/m 6,8 km/h (2 Bft) W-SW 247 -2,8 C -3,6 C
30.11.2012 20:56 -1,1 C 88 % 1010,8 hPa 0,0 l/m 2,5 km/h (1 Bft) W 270 -2,8 C -1,1 C
30.11.2012 21:01 -1,1 C 88 % 1010,9 hPa 0,0 l/m 4,7 km/h (1 Bft) W-SW 247 -2,8 C -2,7 C
30.11.2012 21:06 -1,1 C 88 % 1010,9 hPa 0,0 l/m 7,6 km/h (2 Bft) W-SW 247 -2,8 C -3,9 C
30.11.2012 21:11 -1,1 C 88 % 1011,0 hPa 0,0 l/m 4,7 km/h (1 Bft) W 270 -2,8 C -2,7 C
30.11.2012 21:16 -1,1 C 88 % 1010,9 hPa 0,0 l/m 1,8 km/h (1 Bft) W-SW 247 -2,8 C -1,1 C
30.11.2012 21:21 -1,1 C 88 % 1010,9 hPa 0,0 l/m 4,3 km/h (1 Bft) W-SW 247 -2,8 C -1,1 C
30.11.2012 21:26 -1,1 C 88 % 1011,0 hPa 0,0 l/m 2,5 km/h (1 Bft) W-SW 247 -2,8 C -1,1 C
30.11.2012 21:31 -1,2 C 88 % 1011,0 hPa 0,0 l/m 6,5 km/h (2 Bft) W 270 -2,9 C -3,6 C
30.11.2012 21:36 -1,2 C 88 % 1011,0 hPa 0,0 l/m 5,0 km/h (1 Bft) W-SW 247 -2,9 C -3,0 C
30.11.2012 21:41 -1,3 C 88 % 1010,9 hPa 0,0 l/m 4,7 km/h (1 Bft) W 270 -3,0 C -2,9 C
30.11.2012 21:46 -1,4 C 88 % 1011,0 hPa 0,0 l/m 6,5 km/h (2 Bft) W-SW 247 -3,1 C -3,8 C
30.11.2012 21:51 -1,4 C 88 % 1011,0 hPa 0,0 l/m 5,0 km/h (1 Bft) W 270 -3,1 C -3,2 C
30.11.2012 21:56 -1,4 C 88 % 1011,1 hPa 0,0 l/m 4,7 km/h (1 Bft) W-SW 247 -3,1 C -3,0 C
30.11.2012 22:01 -1,5 C 88 % 1011,1 hPa 0,0 l/m 3,6 km/h (1 Bft) SW 225 -3,2 C -1,5 C
30.11.2012 22:06 -1,5 C 88 % 1011,1 hPa 0,0 l/m 6,1 km/h (2 Bft) W 270 -3,2 C -3,8 C
30.11.2012 22:11 -1,5 C 88 % 1011,1 hPa 0,0 l/m 5,8 km/h (2 Bft) S-SW 202 -3,2 C -3,7 C
30.11.2012 22:16 -1,6 C 88 % 1011,1 hPa 0,0 l/m 5,4 km/h (1 Bft) W-SW 247 -3,3 C -3,6 C
30.11.2012 22:21 -1,5 C 89 % 1011,1 hPa 0,0 l/m 5,8 km/h (2 Bft) W 270 -3,1 C -3,7 C
30.11.2012 22:26 -1,5 C 89 % 1011,3 hPa 0,0 l/m 5,4 km/h (1 Bft) W-SW 247 -3,1 C -3,5 C
30.11.2012 22:31 -1,5 C 89 % 1011,1 hPa 0,0 l/m 4,0 km/h (1 Bft) W 270 -3,1 C -1,5 C
30.11.2012 22:36 -1,5 C 89 % 1011,2 hPa 0,0 l/m 4,3 km/h (1 Bft) W 270 -3,1 C -1,5 C
30.11.2012 22:41 -1,5 C 89 % 1011,1 hPa 0,0 l/m 4,0 km/h (1 Bft) W 270 -3,1 C -1,5 C
30.11.2012 22:46 -1,5 C 88 % 1011,1 hPa 0,0 l/m 10,1 km/h (2 Bft) W-SW 247 -3,2 C -5,1 C
30.11.2012 22:51 -1,5 C 88 % 1011,1 hPa 0,0 l/m 10,4 km/h (2 Bft) W-SW 247 -3,2 C -5,2 C
30.11.2012 22:56 -1,5 C 89 % 1011,3 hPa 0,0 l/m 7,6 km/h (2 Bft) W-SW 247 -3,1 C -4,4 C
30.11.2012 23:01 -1,4 C 89 % 1011,1 hPa 0,0 l/m 5,8 km/h (2 Bft) W-SW 247 -3,0 C -3,5 C
30.11.2012 23:06 -1,5 C 89 % 1011,2 hPa 0,0 l/m 4,3 km/h (1 Bft) W 270 -3,1 C -1,5 C
30.11.2012 23:11 -1,4 C 89 % 1011,2 hPa 0,0 l/m 2,5 km/h (1 Bft) W-SW 247 -3,0 C -1,4 C
30.11.2012 23:16 -1,5 C 89 % 1011,4 hPa 0,0 l/m 4,3 km/h (1 Bft) W-SW 247 -3,1 C -1,5 C
30.11.2012 23:21 -1,5 C 88 % 1011,3 hPa 0,0 l/m 4,0 km/h (1 Bft) W 270 -3,2 C -1,5 C
30.11.2012 23:26 -1,5 C 89 % 1011,4 hPa 0,0 l/m 9,0 km/h (2 Bft) W 270 -3,1 C -4,8 C
30.11.2012 23:31 -1,5 C 89 % 1011,6 hPa 0,0 l/m 4,0 km/h (1 Bft) W-SW 247 -3,1 C -1,5 C
30.11.2012 23:36 -1,5 C 89 % 1011,5 hPa 0,0 l/m 7,2 km/h (2 Bft) W-SW 247 -3,1 C -4,2 C
30.11.2012 23:41 -1,5 C 89 % 1011,5 hPa 0,0 l/m 0,0 km/h (0 Bft) W-SW 247 -3,1 C -1,5 C
30.11.2012 23:46 -1,4 C 89 % 1011,6 hPa 0,0 l/m 2,9 km/h (1 Bft) W-SW 247 -3,0 C -1,4 C
30.11.2012 23:51 -1,4 C 89 % 1011,5 hPa 0,0 l/m 3,2 km/h (1 Bft) SW 225 -3,0 C -1,4 C
30.11.2012 23:56 -1,4 C 89 % 1011,6 hPa 0,0 l/m 8,3 km/h (2 Bft) S-SW 202 -3,0 C -4,5 C
_ Min-Zeit 22:16 13:56 00:11 - 02:51 - - 22:16 22:51
Minimum _ -1,6 C 82 % 1001,1 hPa - 0,0 km/h (0 Bft) - - -3,3 C -5,2 C
_ Max-Zeit 13:56 08:11 23:31 06:16 02:16 - - 11:11 11:51
Maximum _ 3,6 C 92 % 1011,6 hPa 0,5 l/m 19,1 km/h
NW (3 Bft)
- - 1,7 C 3,4 C
Durchschnitt _ 1,5 C 88 % 1006,5 hPa #0,5 l/m 6,1 km/h (2 Bft) NW - -0,2 C 0,1 C
(c) by David Heller